KHIE

Mount Washington Regional Airport

Whitefield, New Hampshire, USA
METAR KHIE 150252Z AUTO 00000KT 10SM SCT110 19/18 A2986 RMK AO2 SLP107 T01890178 50007
Observed Flight Rules
Aug-15 @ 02:52 UTC (44 minutes ago) Visual Flight Rules
Visibility Clouds
10 miles
  • Scattered at 11,000' AGL
Temperatures Readings
Current 19°C / 66°F
Dewpoint 18°C / 64°F
Humidity 94%
Altimeter 29.86" Hg
Pressure 1010.7 hPa
Elevation 318
METAR KHIE 150252Z AUTO 00000KT 10SM SCT110 19/18 A2986 RMK AO2 SLP107 T01890178 50007
Observed Flight Rules
Aug-15 @ 02:52 UTC
(44 minutes ago)
VFR
Clouds
  • Scattered at 11,000' AGL
Temperature Dewpoint
19°C / 66°F 18°C / 64°F
Humidity Altimeter Pressure
94% 29.86" Hg 1010.7 hPa